Time;durP1;ratioP1;P1;durP2;ratioP2;P2;SDS_P1;SDS_P2;PMS_P1;PMS_P2;Temp;Humidity;BMP_temperature;BMP_pressure;BME280_temperature;BME280_humidity;BME280_pressure;Samples;Min_cycle;Max_cycle;Signal;HPM_P1;HPM_P2
2023/04/02 00:01:52;;;;;;;0.98;0.63;;;24.00;45.70;;;;;;5040542;28;20025;-64
2023/04/02 00:04:25;;;;;;;0.98;0.50;;;24.00;45.60;;;;;;5041942;28;20032;-64
2023/04/02 00:07:15;;;;;;;0.40;0.40;;;24.00;45.60;;;;;;5041581;28;20044;-64
2023/04/02 00:09:41;;;;;;;0.45;0.40;;;24.00;45.60;;;;;;5036940;28;20034;-64
2023/04/02 00:12:18;;;;;;;0.43;0.40;;;23.90;45.60;;;;;;5041543;28;20032;-64
2023/04/02 00:14:50;;;;;;;1.13;0.50;;;23.90;45.60;;;;;;5041614;28;20337;-64
2023/04/02 00:17:18;;;;;;;0.70;0.50;;;23.90;45.60;;;;;;5042741;28;20017;-64
2023/04/02 00:20:05;;;;;;;0.70;0.40;;;23.90;45.70;;;;;;5043090;28;20029;-64
2023/04/02 00:22:32;;;;;;;0.40;0.40;;;23.90;45.70;;;;;;5038193;28;20453;-64
2023/04/02 00:25:02;;;;;;;0.52;0.40;;;23.80;45.70;;;;;;5039820;28;20053;-64
2023/04/02 00:27:30;;;;;;;1.67;0.50;;;23.80;45.70;;;;;;5038953;28;20051;-64
2023/04/02 00:29:57;;;;;;;0.63;0.32;;;23.80;45.70;;;;;;5041742;28;20465;-64
2023/04/02 00:32:27;;;;;;;0.70;0.40;;;23.80;45.70;;;;;;5039698;28;20033;-64
2023/04/02 00:34:54;;;;;;;0.73;0.50;;;23.70;45.70;;;;;;5037526;28;20110;-64
2023/04/02 00:37:23;;;;;;;1.02;0.50;;;23.70;45.70;;;;;;5040033;28;20090;-64
2023/04/02 00:40:05;;;;;;;0.90;0.60;;;23.70;45.70;;;;;;5040238;28;20426;-64
2023/04/02 00:42:30;;;;;;;1.00;0.60;;;23.70;45.70;;;;;;5039582;28;20057;-64
2023/04/02 00:44:57;;;;;;;0.82;0.50;;;23.60;45.70;;;;;;5042475;28;20064;-65
2023/04/02 00:47:32;;;;;;;0.38;0.30;;;23.60;45.70;;;;;;5037610;28;20040;-64
2023/04/02 00:50:03;;;;;;;0.63;0.47;;;23.70;45.80;;;;;;5041871;28;20036;-64
2023/04/02 00:52:30;;;;;;;0.68;0.50;;;23.60;46.30;;;;;;5041472;28;20041;-64
2023/04/02 00:55:17;;;;;;;0.70;0.50;;;23.60;45.80;;;;;;5042241;28;20350;-64
2023/04/02 00:57:44;;;;;;;0.45;0.40;;;23.50;45.70;;;;;;5041011;28;20128;-64
2023/04/02 01:00:13;;;;;;;3.00;0.57;;;23.50;45.80;;;;;;5042711;28;20029;-64
2023/04/02 01:02:39;;;;;;;0.40;0.40;;;23.50;45.70;;;;;;5043021;28;20460;-64
2023/04/02 01:05:14;;;;;;;0.80;0.50;;;23.50;45.80;;;;;;5042102;28;20025;-64
2023/04/02 01:08:02;;;;;;;0.68;0.40;;;23.50;45.80;;;;;;5038910;28;20084;-64
2023/04/02 01:10:37;;;;;;;0.40;0.40;;;23.50;45.80;;;;;;5040090;28;20018;-64
2023/04/02 01:13:08;;;;;;;0.50;0.40;;;23.40;45.80;;;;;;5038292;28;20038;-64
2023/04/02 01:16:06;;;;;;;0.30;0.30;;;23.40;45.80;;;;;;5038365;28;20025;-64
2023/04/02 01:19:30;;;;;;;0.60;0.50;;;23.40;45.80;;;;;;5038511;28;20745;-64
2023/04/02 01:22:05;;;;;;;0.77;0.60;;;23.40;45.90;;;;;;4972119;28;20036;-64
2023/04/02 01:24:33;;;;;;;0.60;0.50;;;23.40;45.90;;;;;;5036722;28;20404;-64
2023/04/02 01:27:02;;;;;;;0.55;0.40;;;23.30;45.90;;;;;;5039275;28;20037;-64
2023/04/02 01:29:31;;;;;;;1.30;0.50;;;23.30;45.90;;;;;;5038628;28;20470;-64
2023/04/02 01:32:09;;;;;;;0.40;0.40;;;23.30;46.00;;;;;;5035027;28;20112;-64
2023/04/02 01:34:36;;;;;;;0.50;0.40;;;23.20;45.90;;;;;;5038565;28;20045;-64
2023/04/02 01:37:39;;;;;;;0.50;0.43;;;23.20;45.90;;;;;;5038286;28;20510;-64
2023/04/02 01:40:42;;;;;;;0.40;0.40;;;23.20;46.00;;;;;;5039346;28;20043;-64
2023/04/02 01:43:44;;;;;;;0.95;0.47;;;23.20;46.00;;;;;;5038567;28;20041;-64
2023/04/02 01:46:46;;;;;;;0.70;0.55;;;23.20;46.10;;;;;;5043115;28;20021;-64
2023/04/02 01:49:19;;;;;;;0.63;0.50;;;23.10;46.00;;;;;;5008296;28;20159;-64
2023/04/02 01:51:51;;;;;;;0.47;0.47;;;23.10;46.10;;;;;;5036746;28;20033;-64
2023/04/02 01:54:18;;;;;;;0.50;0.50;;;23.10;46.10;;;;;;5038994;28;20379;-64
2023/04/02 01:56:45;;;;;;;0.40;0.40;;;23.10;46.10;;;;;;5037344;28;20520;-65
2023/04/02 01:59:13;;;;;;;0.70;0.60;;;23.00;46.10;;;;;;5042004;28;20025;-64
2023/04/02 02:01:48;;;;;;;0.50;0.50;;;23.00;46.10;;;;;;5040294;28;20052;-64
2023/04/02 02:04:15;;;;;;;0.60;0.50;;;23.00;46.10;;;;;;5039696;28;20033;-64
2023/04/02 02:06:41;;;;;;;0.45;0.40;;;23.00;46.10;;;;;;5038528;28;20041;-64
2023/04/02 02:09:21;;;;;;;0.95;0.50;;;23.00;46.20;;;;;;5037855;28;20099;-64
2023/04/02 02:11:48;;;;;;;0.40;0.40;;;23.00;46.20;;;;;;5038592;28;20025;-64
2023/04/02 02:14:18;;;;;;;0.90;0.50;;;23.00;46.20;;;;;;5039426;28;20108;-64
2023/04/02 02:16:46;;;;;;;0.68;0.40;;;22.90;46.20;;;;;;5038212;28;20028;-65
2023/04/02 02:19:32;;;;;;;0.50;0.50;;;22.90;46.20;;;;;;5041315;28;20021;-64
2023/04/02 02:22:11;;;;;;;0.85;0.40;;;22.90;46.20;;;;;;5043623;28;20139;-64
2023/04/02 02:24:37;;;;;;;0.47;0.45;;;22.90;46.20;;;;;;5040754;28;20029;-64
2023/04/02 02:27:12;;;;;;;0.73;0.43;;;22.90;46.30;;;;;;5043237;28;20108;-65
2023/04/02 02:29:40;;;;;;;0.77;0.47;;;22.80;46.30;;;;;;5041080;28;20450;-64
2023/04/02 02:32:08;;;;;;;0.63;0.50;;;22.80;46.20;;;;;;5039997;28;20500;-65
2023/04/02 02:34:40;;;;;;;0.95;0.50;;;22.80;46.30;;;;;;5040633;28;20437;-64
2023/04/02 02:37:17;;;;;;;0.57;0.50;;;22.80;46.20;;;;;;5037923;28;20045;-65
2023/04/02 02:39:48;;;;;;;0.65;0.50;;;22.80;46.20;;;;;;5041784;28;20028;-64
2023/04/02 02:42:47;;;;;;;0.40;0.40;;;22.80;46.30;;;;;;5043246;28;20025;-64
2023/04/02 02:45:19;;;;;;;0.57;0.40;;;22.70;46.30;;;;;;5035151;28;20511;-64
2023/04/02 02:47:47;;;;;;;0.90;0.60;;;22.70;46.30;;;;;;5040639;28;20118;-64
2023/04/02 02:50:25;;;;;;;0.75;0.55;;;22.70;46.30;;;;;;5040426;28;20072;-64
2023/04/02 02:52:57;;;;;;;0.40;0.40;;;22.70;46.30;;;;;;5040271;28;20025;-64
2023/04/02 02:55:28;;;;;;;0.40;0.30;;;22.70;46.30;;;;;;5042226;28;20094;-64
2023/04/02 02:58:00;;;;;;;0.30;0.30;;;22.70;46.40;;;;;;5042713;28;20040;-64
2023/04/02 03:00:26;;;;;;;0.70;0.50;;;22.70;46.90;;;;;;5040839;28;20025;-64
2023/04/02 03:02:55;;;;;;;0.60;0.50;;;22.70;46.40;;;;;;5040097;28;20022;-64
2023/04/02 03:05:25;;;;;;;0.35;0.35;;;22.70;46.40;;;;;;5040746;28;20025;-64
2023/04/02 03:07:52;;;;;;;;;;;22.60;46.30;;;;;;5042079;28;20040;-64
2023/04/02 03:10:17;;;;;;;0.73;0.40;;;22.60;46.30;;;;;;5040018;28;19909;-64
2023/04/02 03:13:07;;;;;;;0.63;0.40;;;22.60;46.40;;;;;;5041408;28;20148;-64
2023/04/02 03:16:10;;;;;;;0.50;0.50;;;22.60;46.40;;;;;;5040212;28;20029;-64
2023/04/02 03:18:38;;;;;;;0.43;0.43;;;22.60;46.40;;;;;;5041628;28;20087;-64
2023/04/02 03:21:17;;;;;;;0.40;0.40;;;22.60;46.40;;;;;;5039367;28;20068;-64
2023/04/02 03:23:46;;;;;;;0.38;0.38;;;22.60;46.40;;;;;;5042686;28;20684;-64
2023/04/02 03:26:24;;;;;;;0.55;0.50;;;22.50;46.40;;;;;;5041411;28;20083;-64
2023/04/02 03:28:59;;;;;;;0.77;0.50;;;22.50;46.40;;;;;;5038669;28;20179;-64
2023/04/02 03:31:36;;;;;;;0.35;0.35;;;22.50;46.40;;;;;;5040234;28;20033;-64
2023/04/02 03:34:32;;;;;;;0.30;0.30;;;22.50;46.40;;;;;;5041745;28;20503;-64
2023/04/02 03:37:21;;;;;;;0.40;0.40;;;22.50;46.50;;;;;;5041279;28;20079;-64
2023/04/02 03:40:00;;;;;;;0.70;0.60;;;22.50;46.50;;;;;;5039660;28;20491;-64
2023/04/02 03:42:34;;;;;;;0.50;0.50;;;22.50;46.50;;;;;;5039461;28;20711;-64
2023/04/02 03:45:09;;;;;;;0.40;0.40;;;22.50;46.50;;;;;;5037349;28;20067;-64
2023/04/02 03:47:50;;;;;;;0.40;0.40;;;22.40;46.50;;;;;;5040000;28;20025;-65
2023/04/02 03:50:27;;;;;;;1.00;0.63;;;22.40;46.50;;;;;;5041123;28;20021;-64
2023/04/02 03:52:53;;;;;;;0.85;0.50;;;22.40;46.50;;;;;;5038122;28;20373;-64
2023/04/02 03:55:27;;;;;;;0.82;0.50;;;22.40;46.60;;;;;;5040095;28;20021;-64
2023/04/02 03:58:10;;;;;;;0.32;0.32;;;22.40;46.60;;;;;;5038769;28;20037;-64
2023/04/02 04:00:44;;;;;;;0.40;0.40;;;22.40;46.60;;;;;;5042283;28;20476;-64
2023/04/02 04:03:20;;;;;;;0.90;0.52;;;22.40;46.60;;;;;;5041664;28;20527;-64
2023/04/02 04:05:59;;;;;;;0.35;0.32;;;22.40;46.60;;;;;;5041881;28;20029;-64
2023/04/02 04:08:45;;;;;;;0.50;0.40;;;22.40;46.60;;;;;;5041808;28;20503;-64
2023/04/02 04:11:18;;;;;;;0.30;0.30;;;22.30;46.60;;;;;;5040567;28;20033;-64
2023/04/02 04:13:53;;;;;;;0.52;0.40;;;22.30;46.60;;;;;;5039864;28;20428;-64
2023/04/02 04:16:47;;;;;;;0.43;0.40;;;22.30;46.70;;;;;;5043254;28;20389;-64
2023/04/02 04:19:34;;;;;;;0.40;0.40;;;22.30;46.70;;;;;;5034352;28;20457;-64
2023/04/02 04:22:18;;;;;;;0.32;0.30;;;22.30;46.70;;;;;;5041051;28;20108;-64
2023/04/02 04:24:46;;;;;;;0.57;0.40;;;22.30;46.70;;;;;;5040071;28;20051;-64
2023/04/02 04:27:21;;;;;;;0.43;0.43;;;22.30;46.70;;;;;;5043620;28;20135;-64
2023/04/02 04:29:53;;;;;;;0.40;0.40;;;22.30;46.70;;;;;;5039863;28;20094;-64
2023/04/02 04:32:32;;;;;;;0.40;0.40;;;22.20;46.70;;;;;;5039487;28;20064;-64
2023/04/02 04:35:12;;;;;;;0.50;0.40;;;22.20;46.70;;;;;;5039383;28;20025;-64
2023/04/02 04:37:42;;;;;;;0.30;0.30;;;22.20;46.80;;;;;;5037177;28;20050;-64
2023/04/02 04:40:19;;;;;;;0.30;0.30;;;22.20;46.80;;;;;;5037590;28;20025;-64
2023/04/02 04:42:49;;;;;;;0.40;0.40;;;22.20;46.80;;;;;;5035313;28;20420;-64
2023/04/02 04:45:15;;;;;;;0.40;0.40;;;22.20;46.80;;;;;;5045092;28;20044;-64
2023/04/02 04:48:00;;;;;;;1.00;0.50;;;22.20;46.80;;;;;;5033506;28;20037;-64
2023/04/02 04:50:37;;;;;;;0.68;0.43;;;22.20;46.80;;;;;;5039585;28;20038;-64
2023/04/02 04:53:12;;;;;;;0.50;0.50;;;22.20;46.80;;;;;;5039508;28;20035;-64
2023/04/02 04:55:47;;;;;;;0.40;0.40;;;22.20;46.90;;;;;;5039626;28;20466;-64
2023/04/02 04:58:48;;;;;;;1.38;0.50;;;22.20;46.90;;;;;;5038762;28;20040;-64
2023/04/02 05:01:37;;;;;;;0.60;0.47;;;22.10;46.80;;;;;;5030290;28;20444;-64
2023/04/02 05:04:08;;;;;;;0.40;0.40;;;22.10;46.80;;;;;;5038636;28;20025;-65
2023/04/02 05:06:49;;;;;;;0.38;0.32;;;22.10;46.80;;;;;;5036249;28;20152;-65
2023/04/02 05:09:32;;;;;;;0.40;0.40;;;22.10;47.40;;;;;;5038106;28;20029;-65
2023/04/02 05:12:31;;;;;;;0.30;0.30;;;22.10;46.90;;;;;;5038991;28;20469;-66
2023/04/02 05:15:01;;;;;;;0.35;0.30;;;22.10;47.00;;;;;;5038567;28;20491;-66
2023/04/02 05:17:49;;;;;;;0.45;0.40;;;22.10;47.00;;;;;;5038666;28;20029;-66
2023/04/02 05:20:28;;;;;;;0.50;0.40;;;22.10;47.00;;;;;;5037695;28;20108;-65
2023/04/02 05:23:08;;;;;;;0.32;0.30;;;22.10;47.10;;;;;;5039248;28;20033;-65
2023/04/02 05:25:33;;;;;;;;;;;22.10;47.00;;;;;;5037839;28;20021;-65
2023/04/02 05:27:59;;;;;;;0.70;0.40;;;22.10;47.10;;;;;;5038684;28;19920;-66
2023/04/02 05:30:28;;;;;;;0.30;0.30;;;22.00;47.10;;;;;;5039725;28;20396;-65
2023/04/02 05:33:12;;;;;;;0.40;0.40;;;22.00;47.10;;;;;;5040356;28;20029;-65
2023/04/02 05:35:43;;;;;;;0.45;0.30;;;22.00;47.10;;;;;;5037955;28;20322;-65
2023/04/02 05:38:21;;;;;;;0.75;0.40;;;22.10;47.20;;;;;;5040753;28;20017;-65
2023/04/02 05:40:53;;;;;;;0.30;0.30;;;22.00;47.10;;;;;;5038408;28;20444;-65
2023/04/02 05:43:23;;;;;;;0.40;0.40;;;22.00;47.20;;;;;;5038267;28;20021;-65
2023/04/02 05:45:55;;;;;;;0.50;0.43;;;22.00;47.20;;;;;;5040006;28;20033;-65
2023/04/02 05:48:31;;;;;;;0.70;0.40;;;22.00;47.20;;;;;;5037792;28;20028;-65
2023/04/02 05:50:57;;;;;;;0.30;0.30;;;22.00;47.20;;;;;;5039691;28;20488;-65
2023/04/02 05:53:54;;;;;;;0.30;0.30;;;22.00;47.20;;;;;;5041716;28;20453;-65
2023/04/02 05:56:25;;;;;;;0.30;0.30;;;22.00;47.30;;;;;;5045126;28;20355;-66
2023/04/02 05:58:59;;;;;;;0.50;0.35;;;22.00;47.20;;;;;;5040838;28;20021;-66
2023/04/02 06:01:57;;;;;;;0.73;0.43;;;22.00;47.30;;;;;;5046011;28;20461;-65
2023/04/02 06:04:30;;;;;;;0.38;0.30;;;22.00;47.80;;;;;;5041690;28;20469;-65
2023/04/02 06:07:22;;;;;;;0.30;0.20;;;22.00;47.30;;;;;;5042246;28;20024;-65
2023/04/02 06:09:53;;;;;;;0.32;0.32;;;21.90;47.30;;;;;;5045828;28;20025;-65
2023/04/02 06:12:30;;;;;;;0.57;0.43;;;21.90;47.30;;;;;;5039780;28;20538;-65
2023/04/02 06:14:56;;;;;;;0.30;0.30;;;21.90;47.30;;;;;;5042292;28;20087;-65
2023/04/02 06:17:22;;;;;;;1.55;0.50;;;21.90;47.80;;;;;;5043106;28;20032;-65
2023/04/02 06:19:50;;;;;;;0.40;0.40;;;21.90;47.30;;;;;;5044873;28;20025;-66
2023/04/02 06:22:34;;;;;;;0.30;0.30;;;21.90;47.30;;;;;;5041960;28;20060;-65
2023/04/02 06:25:08;;;;;;;0.30;0.30;;;21.90;47.30;;;;;;5041715;28;20029;-65
2023/04/02 06:27:35;;;;;;;0.30;0.30;;;21.90;47.40;;;;;;5037759;28;20056;-65
2023/04/02 06:30:04;;;;;;;0.30;0.30;;;21.90;47.40;;;;;;5042150;28;20272;-66
2023/04/02 06:32:30;;;;;;;0.35;0.30;;;21.90;47.40;;;;;;5044094;28;20028;-66
2023/04/02 06:34:56;;;;;;;0.32;0.32;;;21.90;47.40;;;;;;5040387;28;20033;-65
2023/04/02 06:37:35;;;;;;;0.30;0.30;;;21.90;47.40;;;;;;5043683;28;20025;-65
2023/04/02 06:40:02;;;;;;;;;;;21.80;47.40;;;;;;5042773;28;20013;-66
2023/04/02 06:42:32;;;;;;;0.60;0.38;;;21.90;47.40;;;;;;5041320;28;20300;-65
2023/04/02 06:44:58;;;;;;;0.43;0.38;;;21.90;47.40;;;;;;5041516;28;20037;-65
2023/04/02 06:47:45;;;;;;;0.50;0.38;;;21.90;47.40;;;;;;5041207;28;20025;-66
2023/04/02 06:50:15;;;;;;;0.30;0.30;;;21.80;47.40;;;;;;5041531;28;20039;-65
2023/04/02 06:52:48;;;;;;;0.93;0.40;;;21.90;47.50;;;;;;5041492;28;20032;-65
2023/04/02 06:55:20;;;;;;;0.30;0.30;;;21.90;47.50;;;;;;5038696;28;20036;-66
2023/04/02 06:57:47;;;;;;;0.32;0.32;;;21.90;47.50;;;;;;5042938;28;20083;-65
2023/04/02 07:00:43;;;;;;;0.40;0.40;;;21.80;47.50;;;;;;5039125;28;20120;-65
2023/04/02 07:03:22;;;;;;;0.30;0.30;;;21.80;47.50;;;;;;5039847;28;20037;-65
2023/04/02 07:05:47;;;;;;;0.40;0.40;;;21.80;47.60;;;;;;5042879;28;20372;-65
2023/04/02 07:08:13;;;;;;;0.43;0.35;;;21.80;47.60;;;;;;5042318;28;20114;-65
2023/04/02 07:10:39;;;;;;;0.30;0.30;;;21.80;47.60;;;;;;5041724;28;20069;-65
2023/04/02 07:13:05;;;;;;;0.38;0.38;;;21.80;47.70;;;;;;5041912;28;20017;-65
2023/04/02 07:15:31;;;;;;;0.20;0.20;;;21.80;47.70;;;;;;5037759;28;20025;-65
2023/04/02 07:17:58;;;;;;;0.40;0.40;;;21.80;47.70;;;;;;5043375;28;20040;-65
2023/04/02 07:20:28;;;;;;;0.30;0.30;;;21.80;47.70;;;;;;5042053;28;20414;-65
2023/04/02 07:22:54;;;;;;;0.30;0.30;;;21.70;47.70;;;;;;5040618;28;20466;-66
2023/04/02 07:25:20;;;;;;;0.63;0.40;;;21.70;47.80;;;;;;5041627;28;20039;-65
2023/04/02 07:27:46;;;;;;;0.30;0.30;;;21.80;48.00;;;;;;5041416;28;20388;-66
2023/04/02 07:30:12;;;;;;;0.40;0.40;;;21.80;47.90;;;;;;5040882;28;20025;-66
2023/04/02 07:32:38;;;;;;;0.40;0.40;;;21.70;47.90;;;;;;5039917;28;20427;-65
2023/04/02 07:35:04;;;;;;;0.50;0.38;;;21.80;48.00;;;;;;5045877;28;20075;-66
2023/04/02 07:37:30;;;;;;;0.35;0.35;;;21.80;48.00;;;;;;5042874;28;20025;-65
2023/04/02 07:39:56;;;;;;;0.30;0.30;;;21.70;48.00;;;;;;5041692;28;20103;-65
2023/04/02 07:42:22;;;;;;;0.43;0.43;;;21.70;48.00;;;;;;5037463;28;20108;-65
2023/04/02 07:44:47;;;;;;;0.40;0.30;;;21.70;48.10;;;;;;5039232;28;20051;-65
2023/04/02 07:47:13;;;;;;;0.35;0.35;;;21.80;48.10;;;;;;5042244;28;20033;-65
2023/04/02 07:49:39;;;;;;;0.40;0.40;;;21.70;48.10;;;;;;5041853;28;20112;-65
2023/04/02 07:52:05;;;;;;;0.40;0.40;;;21.70;48.10;;;;;;5041637;28;20037;-65
2023/04/02 07:54:31;;;;;;;0.55;0.40;;;21.70;48.10;;;;;;5038503;28;20059;-65
2023/04/02 07:56:56;;;;;;;0.38;0.32;;;21.80;48.20;;;;;;5043027;28;20066;-65
2023/04/02 07:59:22;;;;;;;0.32;0.32;;;21.80;48.20;;;;;;5039118;28;20115;-65
2023/04/02 08:01:48;;;;;;;0.30;0.30;;;21.70;48.20;;;;;;5041827;28;20354;-65
2023/04/02 08:04:19;;;;;;;0.80;0.40;;;21.70;48.20;;;;;;5041618;28;20389;-66
2023/04/02 08:06:45;;;;;;;0.20;0.20;;;21.70;48.20;;;;;;5055844;28;20033;-66
2023/04/02 08:09:11;;;;;;;0.35;0.35;;;21.80;48.20;;;;;;5040873;28;20485;-65
2023/04/02 08:11:37;;;;;;;0.70;0.40;;;21.80;48.30;;;;;;5038373;28;20025;-65
2023/04/02 08:14:02;;;;;;;0.47;0.40;;;21.70;48.20;;;;;;5039275;28;20365;-66
2023/04/02 08:16:43;;;;;;;0.28;0.28;;;21.70;48.30;;;;;;5037854;28;20045;-65
2023/04/02 08:19:09;;;;;;;0.43;0.40;;;21.80;48.30;;;;;;5037733;28;20512;-66
2023/04/02 08:21:34;;;;;;;0.55;0.40;;;21.80;48.30;;;;;;5041922;28;20061;-66
2023/04/02 08:24:00;;;;;;;0.85;0.50;;;21.80;48.30;;;;;;5040265;28;20397;-65
2023/04/02 08:26:26;;;;;;;0.45;0.40;;;21.80;48.30;;;;;;5039618;28;20483;-65
2023/04/02 08:28:52;;;;;;;0.40;0.40;;;21.70;48.30;;;;;;5040358;28;20021;-65
2023/04/02 08:31:17;;;;;;;0.73;0.38;;;21.80;48.30;;;;;;5038615;28;20053;-65
2023/04/02 08:33:43;;;;;;;0.45;0.40;;;21.80;48.40;;;;;;5039896;28;20385;-65
2023/04/02 08:36:17;;;;;;;1.55;0.40;;;21.70;48.40;;;;;;5041447;28;20017;-65
2023/04/02 08:38:43;;;;;;;0.50;0.50;;;21.80;48.60;;;;;;5036589;28;20026;-65
2023/04/02 08:41:26;;;;;;;0.50;0.40;;;21.80;48.50;;;;;;5039066;28;20025;-65
2023/04/02 08:44:05;;;;;;;0.40;0.40;;;21.80;48.50;;;;;;5040271;28;20021;-66
2023/04/02 08:47:06;;;;;;;0.57;0.40;;;21.80;48.40;;;;;;5038243;28;20025;-65
2023/04/02 08:49:57;;;;;;;0.30;0.30;;;21.80;48.50;;;;;;5042169;28;20027;-66
2023/04/02 08:52:24;;;;;;;0.68;0.50;;;21.80;48.60;;;;;;5039785;28;20040;-65
2023/04/02 08:54:50;;;;;;;0.60;0.40;;;21.80;48.60;;;;;;5038313;28;20060;-65
2023/04/02 08:57:25;;;;;;;1.10;0.50;;;21.80;48.50;;;;;;5037534;28;20501;-66
2023/04/02 09:00:03;;;;;;;0.50;0.40;;;21.80;48.60;;;;;;5041020;28;20025;-65
2023/04/02 09:02:34;;;;;;;1.00;0.47;;;21.80;48.60;;;;;;5039210;28;20041;-65
2023/04/02 09:05:05;;;;;;;0.47;0.40;;;21.80;48.60;;;;;;5035396;28;20058;-65
2023/04/02 09:07:32;;;;;;;0.60;0.40;;;21.80;48.60;;;;;;5038978;28;20513;-65
2023/04/02 09:09:58;;;;;;;0.85;0.52;;;21.80;48.60;;;;;;5037740;28;20508;-65
2023/04/02 09:12:30;;;;;;;0.30;0.30;;;21.80;48.50;;;;;;5038425;28;20187;-66
2023/04/02 09:15:19;;;;;;;0.40;0.40;;;21.80;48.50;;;;;;5037880;28;20456;-65
2023/04/02 09:17:45;;;;;;;0.40;0.40;;;21.80;48.60;;;;;;5039666;28;20023;-65
2023/04/02 09:20:20;;;;;;;0.40;0.40;;;21.90;48.50;;;;;;5037927;28;20412;-65
2023/04/02 09:22:49;;;;;;;0.40;0.40;;;21.80;48.50;;;;;;5039901;28;20051;-65
2023/04/02 09:25:29;;;;;;;0.40;0.40;;;21.90;48.60;;;;;;5045113;28;20029;-66
2023/04/02 09:27:57;;;;;;;1.85;0.40;;;21.80;48.50;;;;;;5035668;28;20041;-65
2023/04/02 09:30:28;;;;;;;0.40;0.40;;;21.80;49.00;;;;;;5039516;28;20079;-66
2023/04/02 09:33:01;;;;;;;0.98;0.45;;;21.80;48.40;;;;;;5040088;28;20476;-65
2023/04/02 09:35:31;;;;;;;0.60;0.38;;;21.80;48.40;;;;;;5037803;28;20036;-65
2023/04/02 09:38:09;;;;;;;0.38;0.30;;;21.80;48.40;;;;;;5041117;28;20032;-65
2023/04/02 09:40:44;;;;;;;0.52;0.50;;;21.80;48.40;;;;;;5037516;28;20432;-65
2023/04/02 09:43:20;;;;;;;0.40;0.40;;;21.80;48.40;;;;;;5037393;28;20710;-65
2023/04/02 09:45:55;;;;;;;0.40;0.40;;;21.80;48.50;;;;;;5037446;28;20025;-65
2023/04/02 09:48:37;;;;;;;0.40;0.40;;;21.80;48.50;;;;;;5038962;28;20172;-65
2023/04/02 09:51:06;;;;;;;0.43;0.40;;;21.80;48.40;;;;;;5039210;28;20060;-65
2023/04/02 09:53:38;;;;;;;0.45;0.40;;;21.80;48.40;;;;;;5035726;28;20496;-66
2023/04/02 09:56:12;;;;;;;0.43;0.40;;;21.80;48.40;;;;;;5036592;28;20031;-66
2023/04/02 09:58:39;;;;;;;0.50;0.40;;;21.90;48.70;;;;;;5037201;28;20083;-65
2023/04/02 10:01:09;;;;;;;0.47;0.40;;;21.90;48.40;;;;;;5037267;28;20035;-66
2023/04/02 10:03:35;;;;;;;0.80;0.57;;;21.90;48.40;;;;;;5041773;28;20178;-65
2023/04/02 10:06:09;;;;;;;0.40;0.40;;;21.90;48.40;;;;;;5039267;28;20504;-65
2023/04/02 10:08:36;;;;;;;0.52;0.40;;;21.80;48.30;;;;;;5039743;28;20048;-65
2023/04/02 10:11:27;;;;;;;0.40;0.40;;;21.80;48.80;;;;;;5038374;28;20029;-65
2023/04/02 10:13:57;;;;;;;0.65;0.50;;;21.80;48.30;;;;;;5037788;28;20194;-65
2023/04/02 10:16:35;;;;;;;0.40;0.40;;;21.80;48.30;;;;;;5037223;28;20022;-66
2023/04/02 10:19:29;;;;;;;0.40;0.40;;;21.90;48.30;;;;;;5038862;28;20014;-65
2023/04/02 10:21:57;;;;;;;0.40;0.40;;;21.80;48.20;;;;;;5037859;28;20021;-65
2023/04/02 10:24:26;;;;;;;0.43;0.43;;;21.90;48.30;;;;;;5038322;28;20025;-65
2023/04/02 10:27:08;;;;;;;0.47;0.30;;;21.80;48.20;;;;;;5037620;28;20037;-65
2023/04/02 10:30:01;;;;;;;0.40;0.40;;;21.80;48.20;;;;;;5038737;28;20033;-65
2023/04/02 10:32:33;;;;;;;0.57;0.40;;;21.80;48.20;;;;;;5039895;28;20029;-65
2023/04/02 10:35:22;;;;;;;0.40;0.40;;;21.80;48.20;;;;;;5037064;28;20116;-65
2023/04/02 10:37:53;;;;;;;0.50;0.50;;;21.90;48.30;;;;;;5037141;28;20492;-66
2023/04/02 10:40:35;;;;;;;0.40;0.30;;;21.80;48.20;;;;;;5042201;28;20044;-65
2023/04/02 10:43:28;;;;;;;1.63;0.40;;;21.80;48.20;;;;;;5042211;28;20090;-65
2023/04/02 10:46:05;;;;;;;0.43;0.40;;;21.80;48.20;;;;;;5040277;28;20458;-65
2023/04/02 10:48:51;;;;;;;0.85;0.60;;;21.90;48.30;;;;;;5041234;28;20075;-65
2023/04/02 10:51:49;;;;;;;0.57;0.50;;;21.80;48.20;;;;;;5038663;28;20034;-65
2023/04/02 10:54:45;;;;;;;0.43;0.43;;;21.80;48.30;;;;;;5050108;28;20032;-65
2023/04/02 10:57:30;;;;;;;0.40;0.35;;;21.80;48.20;;;;;;5040978;28;20021;-65
2023/04/02 11:00:11;;;;;;;0.63;0.40;;;21.90;48.30;;;;;;5042725;28;20058;-66
2023/04/02 11:02:59;;;;;;;0.75;0.40;;;21.80;48.30;;;;;;5040397;28;20025;-65
2023/04/02 11:05:39;;;;;;;0.40;0.40;;;21.80;48.30;;;;;;5040468;28;20485;-65
2023/04/02 11:08:28;;;;;;;0.40;0.40;;;21.80;48.40;;;;;;5054506;28;20511;-65
2023/04/02 11:11:22;;;;;;;1.67;0.60;;;21.80;48.50;;;;;;5041655;28;20021;-65
2023/04/02 11:14:00;;;;;;;0.68;0.40;;;21.90;48.50;;;;;;5033990;28;20520;-65
2023/04/02 11:16:26;;;;;;;0.50;0.40;;;21.80;48.50;;;;;;5048107;28;21009;-64
2023/04/02 11:19:13;;;;;;;1.02;0.45;;;21.80;48.60;;;;;;5039512;28;20036;-64
2023/04/02 11:21:45;;;;;;;0.68;0.50;;;21.80;48.60;;;;;;5044546;28;20037;-65
2023/04/02 11:24:30;;;;;;;0.50;0.50;;;21.80;48.60;;;;;;5040547;28;20032;-65
2023/04/02 11:27:10;;;;;;;0.63;0.43;;;21.80;48.60;;;;;;5037478;28;20029;-65
2023/04/02 11:29:42;;;;;;;1.02;0.50;;;21.80;48.60;;;;;;5043985;28;20496;-64
2023/04/02 11:32:28;;;;;;;0.85;0.50;;;21.80;48.60;;;;;;5041261;28;20057;-66
2023/04/02 11:34:53;;;;;;;0.75;0.50;;;21.80;48.70;;;;;;5040382;28;20025;-65
2023/04/02 11:37:38;;;;;;;0.63;0.40;;;21.80;48.90;;;;;;5041943;28;20018;-64
2023/04/02 11:40:10;;;;;;;1.05;0.40;;;21.80;49.00;;;;;;5040996;28;20452;-65
2023/04/02 11:42:41;;;;;;;0.40;0.40;;;21.90;49.00;;;;;;5041733;28;20093;-65
2023/04/02 11:45:22;;;;;;;0.75;0.73;;;21.90;49.00;;;;;;5038310;28;20459;-65
2023/04/02 11:47:59;;;;;;;0.75;0.50;;;21.80;49.00;;;;;;5041512;28;20163;-65
2023/04/02 11:50:46;;;;;;;1.10;0.50;;;21.90;48.90;;;;;;5044703;28;20036;-65
2023/04/02 11:53:15;;;;;;;0.47;0.45;;;21.90;49.00;;;;;;5037788;28;20496;-65
2023/04/02 11:55:42;;;;;;;0.40;0.40;;;21.90;49.00;;;;;;5036502;28;20033;-64
2023/04/02 11:58:51;;;;;;;0.60;0.43;;;21.80;48.90;;;;;;5039418;28;20116;-65
2023/04/02 12:01:33;;;;;;;0.38;0.38;;;21.90;48.90;;;;;;5040042;28;20039;-65
2023/04/02 12:04:08;;;;;;;1.15;0.50;;;21.90;48.90;;;;;;5039298;28;20018;-65
2023/04/02 12:06:45;;;;;;;0.50;0.50;;;21.90;48.90;;;;;;5041028;28;20377;-65
2023/04/02 12:09:26;;;;;;;0.52;0.40;;;21.90;48.80;;;;;;5039036;28;20040;-65
2023/04/02 12:11:55;;;;;;;1.08;0.50;;;21.90;48.80;;;;;;5056291;28;20029;-65
2023/04/02 12:14:47;;;;;;;0.68;0.50;;;21.90;48.80;;;;;;5045887;28;20044;-65
2023/04/02 12:17:34;;;;;;;0.40;0.40;;;21.90;48.90;;;;;;5039510;28;20044;-64
2023/04/02 12:20:08;;;;;;;0.70;0.50;;;21.90;49.40;;;;;;5042062;28;20384;-64
2023/04/02 12:22:47;;;;;;;1.40;0.60;;;21.90;49.00;;;;;;5041761;28;20041;-65
2023/04/02 12:25:33;;;;;;;1.08;0.50;;;21.90;48.90;;;;;;5040631;28;20064;-65
2023/04/02 12:28:13;;;;;;;1.08;0.57;;;21.90;48.90;;;;;;5039477;28;20048;-65
2023/04/02 12:30:40;;;;;;;1.42;0.50;;;21.90;49.00;;;;;;5037813;28;20033;-64
2023/04/02 12:33:21;;;;;;;1.10;0.60;;;21.90;49.00;;;;;;5038817;28;20116;-65
2023/04/02 12:35:49;;;;;;;0.45;0.38;;;21.90;49.10;;;;;;5041728;28;20029;-65
2023/04/02 12:38:24;;;;;;;0.85;0.60;;;21.90;49.00;;;;;;5040043;28;20017;-65
2023/04/02 12:40:55;;;;;;;1.10;0.60;;;21.90;49.10;;;;;;5041119;28;20567;-65
2023/04/02 12:43:28;;;;;;;0.95;0.55;;;21.90;49.20;;;;;;5039418;28;20215;-65
2023/04/02 12:45:56;;;;;;;0.90;0.57;;;22.00;49.20;;;;;;5040872;28;20487;-65
2023/04/02 12:48:23;;;;;;;0.50;0.50;;;21.90;49.10;;;;;;5038302;28;20025;-64
2023/04/02 12:50:49;;;;;;;1.90;0.75;;;22.00;49.20;;;;;;5041718;28;20033;-66
2023/04/02 12:53:21;;;;;;;2.00;0.50;;;22.00;49.40;;;;;;5045124;28;20120;-63
2023/04/02 12:55:49;;;;;;;0.73;0.50;;;22.00;49.70;;;;;;5039532;28;20496;-63
2023/04/02 12:58:28;;;;;;;1.63;0.30;;;22.00;49.60;;;;;;5038011;28;20060;-64
2023/04/02 13:01:22;;;;;;;0.63;0.40;;;22.00;49.60;;;;;;5040342;28;20111;-62
2023/04/02 13:04:11;;;;;;;1.40;0.60;;;22.10;49.60;;;;;;5039832;28;20116;-63
2023/04/02 13:06:38;;;;;;;0.93;0.60;;;22.20;49.30;;;;;;5038804;28;20024;-64
2023/04/02 13:09:06;;;;;;;0.77;0.60;;;22.20;49.20;;;;;;5040856;28;20147;-64
2023/04/02 13:11:41;;;;;;;1.65;0.70;;;22.20;49.00;;;;;;5039806;28;20622;-64
2023/04/02 13:14:16;;;;;;;0.80;0.60;;;22.30;48.90;;;;;;5035942;28;20150;-65
2023/04/02 13:16:42;;;;;;;0.77;0.47;;;22.40;48.90;;;;;;5035496;28;20032;-65
2023/04/02 13:19:19;;;;;;;1.10;0.50;;;22.40;48.80;;;;;;5038799;28;20039;-65
2023/04/02 13:21:44;;;;;;;1.35;0.60;;;22.50;48.80;;;;;;5040290;28;20022;-65
2023/04/02 13:24:20;;;;;;;1.40;0.60;;;22.50;48.70;;;;;;5037474;28;20031;-66
2023/04/02 13:26:48;;;;;;;1.40;0.70;;;22.60;48.70;;;;;;5041534;28;20496;-64
2023/04/02 13:29:33;;;;;;;1.20;0.57;;;22.60;48.70;;;;;;5039932;28;20067;-64